createdAt,value
2023-11-18T00:02:03.413Z,9.65
2023-11-18T00:04:33.493Z,16.60
2023-11-18T00:07:02.433Z,11.52
2023-11-18T00:09:31.023Z,9.93
2023-11-18T00:11:59.562Z,15.85
2023-11-18T00:14:28.115Z,10.60
2023-11-18T00:16:57.391Z,14.25
2023-11-18T00:19:25.941Z,12.23
2023-11-18T00:21:55.965Z,12.38
2023-11-18T00:24:24.892Z,15.80
2023-11-18T00:26:53.448Z,13.70
2023-11-18T00:29:22.034Z,15.57
2023-11-18T00:31:50.721Z,16.25
2023-11-18T00:34:19.382Z,15.65
2023-11-18T00:36:48.030Z,11.68
2023-11-18T00:39:18.284Z,15.27
2023-11-18T00:41:46.872Z,12.15
2023-11-18T00:44:15.911Z,11.65
2023-11-18T00:46:44.566Z,12.60
2023-11-18T00:49:13.414Z,9.82
2023-11-18T00:51:42.479Z,12.15
2023-11-18T00:54:11.391Z,13.75
2023-11-18T00:56:41.314Z,11.35
2023-11-18T00:59:09.963Z,13.20
2023-11-18T01:01:39.412Z,14.07
2023-11-18T01:04:08.127Z,13.40
2023-11-18T01:06:38.013Z,13.48
2023-11-18T01:09:08.043Z,13.25
2023-11-18T01:11:36.863Z,13.77
2023-11-18T01:14:07.617Z,8.40
2023-11-18T01:16:36.417Z,10.73
2023-11-18T01:19:05.091Z,15.70
2023-11-18T01:21:33.684Z,12.40
2023-11-18T01:24:02.681Z,13.57
2023-11-18T01:26:31.319Z,13.82
2023-11-18T01:29:00.070Z,11.30
2023-11-18T01:31:43.417Z,10.50
2023-11-18T01:34:16.340Z,11.68
2023-11-18T01:36:45.002Z,11.50
2023-11-18T01:39:15.391Z,11.52
2023-11-18T01:41:43.959Z,9.63
2023-11-18T01:44:14.951Z,10.88
2023-11-18T01:46:46.844Z,9.27
2023-11-18T01:49:16.574Z,9.98
2023-11-18T01:51:46.684Z,9.68
2023-11-18T01:54:20.661Z,16.45
2023-11-18T01:56:53.334Z,9.57
2023-11-18T01:59:22.575Z,8.02
2023-11-18T02:01:54.862Z,10.65
2023-11-18T02:04:23.874Z,8.38
2023-11-18T02:06:53.178Z,11.80
2023-11-18T02:09:28.724Z,10.27
2023-11-18T02:12:03.165Z,9.55
2023-11-18T02:14:34.416Z,9.30
2023-11-18T02:17:07.803Z,11.80
2023-11-18T02:19:37.753Z,10.35
2023-11-18T02:22:09.259Z,12.65
2023-11-18T02:24:39.135Z,7.22
2023-11-18T02:27:13.409Z,10.35
2023-11-18T02:29:44.437Z,10.07
2023-11-18T02:32:24.902Z,9.30
2023-11-18T02:35:01.645Z,11.38
2023-11-18T02:37:34.224Z,15.30
2023-11-18T02:40:13.008Z,38.58
2023-11-18T02:42:45.412Z,32.08
2023-11-18T02:45:18.604Z,10.50
2023-11-18T02:47:47.801Z,17.27
2023-11-18T02:50:17.232Z,13.52
2023-11-18T02:52:47.348Z,9.38
2023-11-18T02:55:16.099Z,13.02
2023-11-18T02:57:46.108Z,11.57
2023-11-18T03:00:20.585Z,8.38
2023-11-18T03:02:49.458Z,12.45
2023-11-18T03:05:18.933Z,11.15
2023-11-18T03:07:51.069Z,10.50
2023-11-18T03:10:23.400Z,13.70
2023-11-18T03:12:54.826Z,9.98
2023-11-18T03:15:24.758Z,12.90
2023-11-18T03:17:54.579Z,12.82
2023-11-18T03:20:24.843Z,16.13
2023-11-18T03:22:53.725Z,12.07
2023-11-18T03:25:24.276Z,11.05
2023-11-18T03:27:55.913Z,12.52
2023-11-18T03:30:24.543Z,11.35
2023-11-18T03:32:53.126Z,12.23
2023-11-18T03:35:21.745Z,13.98
2023-11-18T03:37:52.316Z,11.95
2023-11-18T03:40:20.916Z,11.68
2023-11-18T03:42:50.873Z,17.15
2023-11-18T03:45:22.149Z,12.45
2023-11-18T03:47:51.860Z,11.65
2023-11-18T03:50:20.513Z,16.33
2023-11-18T03:52:49.212Z,11.63
2023-11-18T03:55:19.304Z,12.00
2023-11-18T03:57:47.947Z,11.63
2023-11-18T04:00:18.974Z,32.17
2023-11-18T04:02:50.419Z,13.57
2023-11-18T04:05:19.234Z,17.48
2023-11-18T04:07:48.048Z,16.95
2023-11-18T04:10:19.350Z,13.65
2023-11-18T04:12:48.947Z,9.77
2023-11-18T04:15:18.512Z,8.00
2023-11-18T04:17:48.542Z,13.10
2023-11-18T04:20:17.601Z,12.57
2023-11-18T04:22:46.688Z,15.90
2023-11-18T04:25:16.393Z,11.38
2023-11-18T04:27:47.042Z,11.32
2023-11-18T04:30:16.346Z,15.35
2023-11-18T04:32:45.176Z,11.77
2023-11-18T04:35:15.417Z,10.43
2023-11-18T04:37:47.307Z,16.45
2023-11-18T04:40:16.874Z,11.48
2023-11-18T04:42:46.009Z,9.52
2023-11-18T04:45:16.628Z,10.48
2023-11-18T04:47:46.372Z,12.30
2023-11-18T04:50:16.744Z,13.32
2023-11-18T04:52:45.469Z,12.38
2023-11-18T04:55:15.471Z,16.67
2023-11-18T04:57:44.756Z,14.93
2023-11-18T05:00:17.920Z,12.05
2023-11-18T05:02:48.885Z,19.77
2023-11-18T05:05:19.579Z,12.13
2023-11-18T05:07:48.825Z,12.93
2023-11-18T05:10:17.927Z,16.15
2023-11-18T05:12:54.594Z,24.25
2023-11-18T05:15:25.886Z,21.55
2023-11-18T05:17:55.270Z,27.35
2023-11-18T05:20:25.836Z,41.05
2023-11-18T05:22:55.738Z,35.45
2023-11-18T05:25:24.668Z,36.35
2023-11-18T05:27:54.106Z,39.60
2023-11-18T05:30:24.458Z,29.25
2023-11-18T05:32:53.027Z,40.15
2023-11-18T05:35:24.961Z,42.17
2023-11-18T05:37:55.545Z,83.22
2023-11-18T05:40:24.223Z,98.50
2023-11-18T05:42:53.871Z,127.28
2023-11-18T05:45:33.016Z,128.93
2023-11-18T05:48:02.362Z,102.32
2023-11-18T05:50:31.062Z,108.00
2023-11-18T05:53:01.077Z,127.30
2023-11-18T05:55:29.701Z,122.13
2023-11-18T05:57:58.221Z,86.22
2023-11-18T06:00:33.270Z,85.57
2023-11-18T06:03:05.552Z,79.07
2023-11-18T06:05:36.415Z,79.75
2023-11-18T06:08:09.216Z,59.53
2023-11-18T06:10:38.322Z,64.05
2023-11-18T06:13:07.340Z,69.95
2023-11-18T06:15:37.120Z,56.20
2023-11-18T06:18:07.433Z,37.92
2023-11-18T06:20:39.648Z,38.42
2023-11-18T06:23:09.977Z,42.78
2023-11-18T06:25:38.507Z,34.28
2023-11-18T06:28:09.208Z,29.42
2023-11-18T06:30:37.913Z,26.17
2023-11-18T06:33:06.597Z,37.70
2023-11-18T06:35:36.524Z,30.17
2023-11-18T06:38:05.234Z,14.75
2023-11-18T06:40:36.743Z,14.15
2023-11-18T06:43:12.065Z,10.55
2023-11-18T06:45:45.629Z,12.60
2023-11-18T06:48:16.034Z,11.80
2023-11-18T06:50:46.143Z,10.70
2023-11-18T06:53:16.444Z,11.35
2023-11-18T06:55:46.957Z,8.73
2023-11-18T06:58:15.712Z,13.70
2023-11-18T07:00:45.115Z,14.40
2023-11-18T07:03:14.654Z,10.27
2023-11-18T07:05:44.238Z,15.15
2023-11-18T07:08:14.294Z,14.05
2023-11-18T07:10:43.482Z,21.67
2023-11-18T07:13:14.038Z,19.73
2023-11-18T07:15:42.797Z,7.68
2023-11-18T07:18:13.278Z,7.22
2023-11-18T07:20:41.929Z,9.88
2023-11-18T07:23:11.609Z,6.03
2023-11-18T07:25:40.330Z,4.15
2023-11-18T07:28:10.116Z,5.38
2023-11-18T07:30:42.599Z,6.40
2023-11-18T07:33:11.347Z,3.42
2023-11-18T07:35:39.877Z,4.93
2023-11-18T07:38:11.586Z,9.13
2023-11-18T07:40:43.535Z,6.45
2023-11-18T07:43:12.117Z,8.13
2023-11-18T07:45:43.420Z,9.10
2023-11-18T07:48:18.388Z,8.55
2023-11-18T07:50:48.378Z,6.78
2023-11-18T07:53:17.277Z,10.35
2023-11-18T07:55:46.372Z,6.80
2023-11-18T07:58:15.381Z,7.32
2023-11-18T08:00:46.523Z,5.72
2023-11-18T08:03:15.771Z,6.45
2023-11-18T08:05:47.529Z,8.35
2023-11-18T08:08:18.207Z,4.30
2023-11-18T08:10:49.780Z,9.05
2023-11-18T08:13:18.656Z,9.20
2023-11-18T08:15:48.810Z,16.38
2023-11-18T08:18:17.529Z,13.23
2023-11-18T08:20:46.314Z,22.88
2023-11-18T08:23:15.049Z,40.65
2023-11-18T08:25:44.050Z,25.35
2023-11-18T08:28:12.848Z,13.48
2023-11-18T08:30:41.653Z,14.63
2023-11-18T08:33:11.754Z,19.05
2023-11-18T08:35:43.502Z,31.55
2023-11-18T08:38:13.749Z,24.88
2023-11-18T08:40:44.138Z,15.95
2023-11-18T08:43:12.897Z,8.30
2023-11-18T08:45:42.703Z,12.88
2023-11-18T08:48:14.131Z,11.27
2023-11-18T08:50:42.824Z,9.88
2023-11-18T08:53:13.291Z,12.32
2023-11-18T08:55:43.915Z,12.07
2023-11-18T08:58:20.809Z,9.05
2023-11-18T09:00:55.795Z,34.88
2023-11-18T09:03:29.457Z,11.73
2023-11-18T09:06:05.231Z,9.18
2023-11-18T09:08:36.521Z,13.35
2023-11-18T09:11:07.450Z,22.02
2023-11-18T09:13:37.150Z,27.50
2023-11-18T09:16:10.311Z,17.15
2023-11-18T09:18:43.691Z,11.20
2023-11-18T09:21:17.124Z,10.68
2023-11-18T09:23:49.177Z,7.60
2023-11-18T09:26:18.326Z,7.93
2023-11-18T09:28:47.407Z,5.97
2023-11-18T09:31:16.094Z,8.38
2023-11-18T09:33:53.764Z,9.55
2023-11-18T09:36:24.260Z,6.85
2023-11-18T09:38:55.022Z,9.88
2023-11-18T09:41:28.915Z,9.90
2023-11-18T09:44:03.716Z,9.68
2023-11-18T09:46:34.717Z,10.27
2023-11-18T09:49:17.337Z,6.20
2023-11-18T09:51:48.802Z,11.15
2023-11-18T09:54:25.420Z,7.47
2023-11-18T09:57:10.244Z,8.10
2023-11-18T09:59:56.236Z,6.88
2023-11-18T10:02:27.144Z,8.70
2023-11-18T10:05:01.771Z,5.10
2023-11-18T10:07:34.319Z,8.40
2023-11-18T10:10:03.976Z,11.45
2023-11-18T10:12:47.177Z,11.30
2023-11-18T10:15:32.472Z,15.02
2023-11-18T10:18:08.438Z,8.30
2023-11-18T10:20:48.949Z,7.40
2023-11-18T10:23:22.519Z,8.85
2023-11-18T10:25:54.552Z,6.63
2023-11-18T10:28:29.131Z,7.82
2023-11-18T10:31:00.248Z,6.13
2023-11-18T10:33:31.939Z,10.93
2023-11-18T10:36:05.457Z,3.92
2023-11-18T10:38:44.654Z,8.75
2023-11-18T10:41:14.731Z,7.25
2023-11-18T10:43:44.089Z,8.68
2023-11-18T10:46:15.218Z,6.03
2023-11-18T10:48:45.144Z,8.40
2023-11-18T10:51:17.307Z,5.25
2023-11-18T10:53:54.792Z,8.98
2023-11-18T10:56:28.396Z,9.18
2023-11-18T10:58:59.625Z,7.38
2023-11-18T11:01:33.396Z,9.48
2023-11-18T11:04:06.096Z,11.25
2023-11-18T11:06:36.306Z,10.95
2023-11-18T11:09:11.183Z,7.93
2023-11-18T11:11:47.968Z,6.53
2023-11-18T11:14:19.617Z,6.93
2023-11-18T11:16:57.497Z,4.40
2023-11-18T11:19:50.057Z,6.35
2023-11-18T11:22:25.797Z,5.53
2023-11-18T11:25:23.700Z,8.25
2023-11-18T11:28:03.314Z,9.82
2023-11-18T11:30:39.169Z,6.45
2023-11-18T11:33:18.201Z,9.82
2023-11-18T11:35:58.605Z,8.18
2023-11-18T11:38:30.294Z,11.90
2023-11-18T11:41:03.203Z,5.22
2023-11-18T11:43:38.272Z,5.88
2023-11-18T11:46:12.088Z,6.22
2023-11-18T11:48:44.548Z,4.75
2023-11-18T11:51:28.289Z,7.35
2023-11-18T11:54:05.351Z,5.72
2023-11-18T11:56:44.829Z,4.00
2023-11-18T11:59:13.786Z,5.93
2023-11-18T12:01:48.553Z,6.40
2023-11-18T12:04:24.305Z,11.82
2023-11-18T12:07:05.854Z,5.55
2023-11-18T12:09:45.269Z,10.02
2023-11-18T12:12:28.014Z,9.10
2023-11-18T12:14:59.150Z,6.55
2023-11-18T12:17:33.786Z,10.32
2023-11-18T12:20:09.946Z,11.57
2023-11-18T12:23:06.796Z,9.93
2023-11-18T12:25:37.688Z,9.07
2023-11-18T12:28:24.347Z,7.20
2023-11-18T12:30:57.486Z,11.95
2023-11-18T12:33:30.184Z,5.57
2023-11-18T12:36:41.079Z,10.10
2023-11-18T12:40:01.660Z,12.43
2023-11-18T12:43:06.189Z,9.77
2023-11-18T12:46:17.417Z,15.65
2023-11-18T12:48:47.813Z,9.13
2023-11-18T12:51:21.671Z,12.18
2023-11-18T12:53:51.567Z,12.50
2023-11-18T12:56:21.562Z,8.25
2023-11-18T12:58:52.198Z,27.33
2023-11-18T13:01:20.965Z,14.93
2023-11-18T13:03:49.945Z,8.35
2023-11-18T13:06:18.877Z,17.13
2023-11-18T13:08:48.149Z,14.07
2023-11-18T13:11:18.271Z,14.52
2023-11-18T13:13:48.283Z,13.18
2023-11-18T13:16:19.338Z,16.08
2023-11-18T13:18:50.974Z,21.23
2023-11-18T13:21:20.364Z,19.23
2023-11-18T13:23:49.740Z,15.95
2023-11-18T13:26:20.902Z,27.17
2023-11-18T13:28:50.685Z,18.10
2023-11-18T13:31:21.766Z,18.10
2023-11-18T13:33:51.153Z,22.77
2023-11-18T13:36:22.403Z,19.40
2023-11-18T13:38:52.080Z,16.33
2023-11-18T13:41:33.604Z,18.60
2023-11-18T13:44:03.753Z,19.38
2023-11-18T13:46:33.933Z,12.45
2023-11-18T13:49:02.632Z,17.98
2023-11-18T13:51:31.898Z,13.85
2023-11-18T13:54:01.556Z,14.75
2023-11-18T13:56:33.443Z,18.55
2023-11-18T13:59:03.002Z,12.65
2023-11-18T14:01:58.054Z,10.40
2023-11-18T14:04:30.623Z,23.67
2023-11-18T14:07:00.856Z,15.93
2023-11-18T14:09:31.207Z,10.63
2023-11-18T14:12:00.046Z,12.27
2023-11-18T14:14:28.767Z,13.77
2023-11-18T14:17:02.300Z,12.85
2023-11-18T14:19:31.391Z,15.25
2023-11-18T14:22:00.262Z,9.00
2023-11-18T14:24:29.844Z,14.30
2023-11-18T14:26:58.699Z,21.88
2023-11-18T14:29:29.858Z,22.42
2023-11-18T14:32:02.973Z,23.88
2023-11-18T14:34:31.600Z,18.38
2023-11-18T14:37:00.230Z,21.33
2023-11-18T14:39:28.994Z,18.77
2023-11-18T14:41:57.700Z,22.08
2023-11-18T14:44:27.087Z,15.52
2023-11-18T14:46:56.847Z,22.40
2023-11-18T14:49:26.996Z,20.38
2023-11-18T14:51:55.724Z,19.95
2023-11-18T14:54:24.406Z,15.73
2023-11-18T14:56:53.027Z,23.50
2023-11-18T14:59:23.873Z,19.00
2023-11-18T15:02:03.049Z,30.08
2023-11-18T15:04:44.486Z,19.55
2023-11-18T15:07:13.384Z,15.70
2023-11-18T15:09:43.158Z,20.10
2023-11-18T15:12:13.156Z,34.45
2023-11-18T15:14:42.008Z,14.98
2023-11-18T15:17:10.952Z,31.38
2023-11-18T15:19:41.437Z,17.45
2023-11-18T15:22:11.638Z,17.40
2023-11-18T15:24:40.254Z,22.65
2023-11-18T15:27:08.993Z,23.70
2023-11-18T15:29:39.826Z,27.00
2023-11-18T15:32:10.065Z,27.30
2023-11-18T15:34:38.948Z,27.63
2023-11-18T15:37:11.251Z,31.60
2023-11-18T15:39:40.572Z,26.42
2023-11-18T15:42:11.192Z,20.08
2023-11-18T15:44:57.195Z,23.02
2023-11-18T15:47:26.034Z,23.58
2023-11-18T15:49:54.698Z,26.25
2023-11-18T15:52:24.673Z,25.67
2023-11-18T15:54:53.448Z,29.02
2023-11-18T15:57:23.442Z,33.47
2023-11-18T15:59:52.037Z,33.65
2023-11-18T16:02:20.686Z,26.67
2023-11-18T16:04:49.330Z,26.50
2023-11-18T16:07:18.795Z,26.02
2023-11-18T16:09:51.849Z,26.73
2023-11-18T16:12:20.447Z,24.50
2023-11-18T16:14:49.444Z,20.60
2023-11-18T16:17:19.457Z,23.15
2023-11-18T16:19:48.178Z,27.73
2023-11-18T16:22:16.826Z,19.58
2023-11-18T16:24:45.416Z,18.48
2023-11-18T16:27:16.042Z,26.25
2023-11-18T16:29:44.679Z,23.58
2023-11-18T16:32:13.656Z,18.20
2023-11-18T16:34:42.409Z,19.17
2023-11-18T16:37:11.009Z,25.35
2023-11-18T16:39:39.678Z,19.58
2023-11-18T16:42:09.140Z,26.02
2023-11-18T16:44:39.261Z,24.80
2023-11-18T16:47:08.250Z,34.95
2023-11-18T16:49:36.912Z,24.55
2023-11-18T16:52:08.099Z,31.40
2023-11-18T16:54:41.135Z,44.38
2023-11-18T16:57:10.567Z,67.72
2023-11-18T16:59:40.741Z,74.32
2023-11-18T17:02:10.388Z,96.13
2023-11-18T17:04:41.496Z,85.63
2023-11-18T17:07:10.775Z,85.13
2023-11-18T17:09:39.400Z,73.25
2023-11-18T17:12:10.822Z,62.05
2023-11-18T17:14:40.899Z,69.55
2023-11-18T17:17:10.707Z,68.72
2023-11-18T17:19:39.431Z,51.58
2023-11-18T17:22:08.013Z,41.50
2023-11-18T17:24:36.701Z,38.22
2023-11-18T17:27:05.691Z,32.80
2023-11-18T17:29:34.536Z,28.88
2023-11-18T17:32:05.468Z,38.47
2023-11-18T17:34:35.096Z,37.78
2023-11-18T17:37:03.688Z,37.75
2023-11-18T17:39:32.275Z,39.05
2023-11-18T17:42:01.615Z,48.72
2023-11-18T17:44:30.445Z,74.13
2023-11-18T17:46:59.091Z,130.93
2023-11-18T17:49:31.754Z,179.65
2023-11-18T17:52:00.609Z,183.95
2023-11-18T17:54:38.699Z,164.32
2023-11-18T17:57:16.362Z,138.73
2023-11-18T17:59:46.298Z,135.20
2023-11-18T18:02:15.119Z,179.55
2023-11-18T18:04:48.203Z,213.07
2023-11-18T18:07:19.177Z,141.73
2023-11-18T18:09:47.957Z,117.40
2023-11-18T18:12:16.981Z,82.70
2023-11-18T18:14:45.664Z,49.03
2023-11-18T18:17:14.257Z,41.65
2023-11-18T18:19:42.960Z,31.95
2023-11-18T18:22:13.587Z,31.60
2023-11-18T18:24:47.927Z,43.60
2023-11-18T18:27:17.886Z,26.33
2023-11-18T18:29:46.577Z,24.85
2023-11-18T18:32:15.505Z,23.20
2023-11-18T18:34:45.659Z,23.83
2023-11-18T18:37:15.668Z,29.20
2023-11-18T18:39:44.318Z,24.40
2023-11-18T18:42:13.014Z,22.67
2023-11-18T18:44:41.792Z,26.63
2023-11-18T18:47:11.562Z,32.67
2023-11-18T18:49:41.969Z,28.75
2023-11-18T18:52:10.934Z,24.48
2023-11-18T18:54:42.044Z,20.33
2023-11-18T18:57:10.660Z,25.23
2023-11-18T18:59:39.907Z,29.25
2023-11-18T19:02:09.664Z,27.27
2023-11-18T19:04:38.676Z,26.05
2023-11-18T19:07:11.035Z,26.23
2023-11-18T19:09:42.797Z,25.77
2023-11-18T19:12:11.412Z,30.17
2023-11-18T19:14:40.932Z,31.25
2023-11-18T19:17:09.608Z,36.67
2023-11-18T19:19:38.330Z,24.05
2023-11-18T19:22:07.535Z,27.45
2023-11-18T19:24:36.223Z,30.52
2023-11-18T19:27:32.161Z,30.10
2023-11-18T19:30:01.363Z,24.15
2023-11-18T19:32:32.943Z,23.55
2023-11-18T19:35:02.560Z,26.95
2023-11-18T19:37:32.330Z,26.58
2023-11-18T19:40:00.925Z,33.63
2023-11-18T19:42:31.719Z,29.73
2023-11-18T19:45:00.476Z,30.80
2023-11-18T19:47:30.730Z,31.48
2023-11-18T19:49:59.719Z,29.90
2023-11-18T19:52:29.642Z,30.38
2023-11-18T19:54:58.291Z,34.35
2023-11-18T19:57:27.500Z,31.35
2023-11-18T19:59:57.521Z,32.75
2023-11-18T20:02:26.603Z,40.97
2023-11-18T20:04:55.358Z,33.35
2023-11-18T20:07:26.502Z,34.13
2023-11-18T20:09:56.328Z,38.55
2023-11-18T20:12:25.671Z,31.38
2023-11-18T20:14:54.347Z,32.05
2023-11-18T20:17:25.125Z,37.13
2023-11-18T20:19:54.157Z,37.20
2023-11-18T20:22:22.754Z,39.38
2023-11-18T20:24:51.301Z,33.50
2023-11-18T20:27:22.841Z,36.53
2023-11-18T20:29:51.920Z,35.20
2023-11-18T20:32:20.664Z,38.97
2023-11-18T20:34:51.107Z,35.28
2023-11-18T20:37:21.646Z,43.45
2023-11-18T20:39:50.176Z,33.40
2023-11-18T20:42:18.758Z,35.80
2023-11-18T20:44:50.971Z,37.67
2023-11-18T20:47:23.778Z,36.95
2023-11-18T20:49:55.322Z,40.75
2023-11-18T20:52:28.443Z,34.30
2023-11-18T20:54:57.348Z,35.63
2023-11-18T20:57:28.121Z,35.97
2023-11-18T20:59:58.219Z,34.42
2023-11-18T21:02:27.069Z,26.73
2023-11-18T21:05:05.752Z,21.92
2023-11-18T21:07:34.722Z,22.50
2023-11-18T21:10:09.431Z,19.67
2023-11-18T21:12:38.170Z,24.08
2023-11-18T21:15:09.856Z,25.88
2023-11-18T21:17:40.061Z,22.05
2023-11-18T21:20:16.044Z,22.85
2023-11-18T21:22:45.083Z,20.42
2023-11-18T21:25:16.882Z,17.80
2023-11-18T21:27:46.431Z,26.33
2023-11-18T21:30:16.284Z,24.27
2023-11-18T21:32:46.455Z,20.98
2023-11-18T21:35:21.463Z,20.38
2023-11-18T21:37:51.750Z,17.38
2023-11-18T21:40:25.812Z,16.65
2023-11-18T21:42:57.879Z,19.48
2023-11-18T21:45:29.272Z,22.23
2023-11-18T21:48:02.368Z,18.63
2023-11-18T21:50:33.551Z,19.40
2023-11-18T21:53:06.029Z,20.52
2023-11-18T21:55:34.710Z,22.13
2023-11-18T21:58:08.099Z,18.27
2023-11-18T22:00:45.268Z,15.05
2023-11-18T22:03:14.545Z,20.40
2023-11-18T22:05:46.415Z,21.10
2023-11-18T22:08:20.552Z,15.93
2023-11-18T22:10:50.392Z,17.08
2023-11-18T22:13:19.111Z,21.88
2023-11-18T22:15:47.707Z,19.55
2023-11-18T22:18:21.394Z,19.33
2023-11-18T22:21:05.295Z,15.35
2023-11-18T22:23:38.746Z,15.98
2023-11-18T22:26:12.559Z,15.35
2023-11-18T22:28:42.453Z,15.45
2023-11-18T22:31:10.990Z,23.20
2023-11-18T22:33:39.631Z,21.23
2023-11-18T22:36:12.772Z,13.80
2023-11-18T22:38:41.307Z,19.40
2023-11-18T22:41:11.466Z,14.70
2023-11-18T22:43:45.269Z,17.10
2023-11-18T22:46:19.394Z,14.93
2023-11-18T22:48:51.512Z,17.10
2023-11-18T22:51:27.005Z,14.98
2023-11-18T22:53:57.010Z,14.27
2023-11-18T22:56:26.573Z,16.00
2023-11-18T22:58:58.686Z,20.88
2023-11-18T23:01:27.442Z,17.95
2023-11-18T23:03:59.298Z,18.13
2023-11-18T23:06:30.393Z,15.23
2023-11-18T23:09:02.646Z,16.77
2023-11-18T23:11:37.189Z,16.15
2023-11-18T23:14:06.139Z,17.27
2023-11-18T23:16:34.736Z,18.65
2023-11-18T23:19:04.597Z,13.60
2023-11-18T23:21:38.553Z,15.32
2023-11-18T23:24:10.227Z,19.55
2023-11-18T23:26:38.909Z,17.25
2023-11-18T23:29:09.009Z,14.63
2023-11-18T23:31:38.195Z,21.88
2023-11-18T23:34:07.131Z,17.58
2023-11-18T23:36:40.139Z,20.08
2023-11-18T23:39:08.893Z,14.43
2023-11-18T23:41:40.298Z,16.40
2023-11-18T23:44:15.058Z,19.55
2023-11-18T23:46:44.112Z,12.88
2023-11-18T23:49:13.988Z,19.10
2023-11-18T23:51:48.386Z,18.42
2023-11-18T23:54:27.342Z,11.52
2023-11-18T23:56:56.320Z,13.00
2023-11-18T23:59:25.720Z,12.48
